Time;durP1;ratioP1;P1;durP2;ratioP2;P2;SDS_P1;SDS_P2;PMS_P1;PMS_P2;Temp;Humidity;BMP_temperature;BMP_pressure;BME280_temperature;BME280_humidity;BME280_pressure;Samples;Min_cycle;Max_cycle;Signal;HPM_P1;HPM_P2
2023/01/05 00:01:13;;;;;;;17.63;4.38;;;9.80;95.30;;;;;;5035208;28;20484;-73
2023/01/05 00:03:39;;;;;;;26.85;5.18;;;9.90;95.40;;;;;;5035108;28;20047;-74
2023/01/05 00:06:14;;;;;;;25.23;5.47;;;9.80;95.30;;;;;;5034889;28;20045;-72
2023/01/05 00:08:40;;;;;;;35.28;7.30;;;9.80;95.30;;;;;;5033835;28;20048;-73
2023/01/05 00:22:30;;;;;;;19.33;4.88;;;9.70;95.70;;;;;;5051642;28;20110;-73
2023/01/05 00:25:02;;;;;;;22.33;5.97;;;9.70;95.60;;;;;;5051482;28;20032;-75
2023/01/05 00:27:28;;;;;;;21.75;5.57;;;9.80;95.40;;;;;;5051237;28;20045;-71
2023/01/05 00:29:53;;;;;;;27.30;6.60;;;9.70;95.50;;;;;;5051228;28;20088;-75
2023/01/05 00:32:19;;;;;;;27.08;5.10;;;9.80;95.20;;;;;;5051150;28;20041;-74
2023/01/05 00:34:45;;;;;;;22.70;4.03;;;9.80;95.20;;;;;;5034877;28;20032;-72
2023/01/05 00:37:11;;;;;;;26.95;6.13;;;9.80;95.20;;;;;;5018409;28;20076;-73
2023/01/05 00:39:37;;;;;;;25.25;4.75;;;9.80;94.90;;;;;;5050242;28;20130;-72
2023/01/05 00:42:02;;;;;;;17.92;4.43;;;9.80;94.80;;;;;;5051096;28;20485;-76
2023/01/05 00:44:28;;;;;;;19.63;4.32;;;9.90;94.70;;;;;;5051131;28;20072;-74
2023/01/05 00:46:54;;;;;;;27.63;5.20;;;9.90;94.00;;;;;;5050984;28;20052;-74
2023/01/05 00:49:19;;;;;;;16.15;5.28;;;9.90;94.00;;;;;;5050965;28;20055;-73
2023/01/05 00:51:45;;;;;;;21.13;5.70;;;9.90;93.80;;;;;;5051069;28;20134;-74
2023/01/05 00:54:11;;;;;;;24.17;6.55;;;10.00;93.60;;;;;;5033318;28;20107;-73
2023/01/05 00:56:36;;;;;;;21.95;5.78;;;10.00;93.40;;;;;;5031144;28;20460;-73
2023/01/05 00:59:02;;;;;;;26.65;6.20;;;10.00;93.40;;;;;;5031366;28;20398;-75
2023/01/05 01:01:28;;;;;;;19.58;5.50;;;10.00;93.10;;;;;;5014615;28;20053;-73
2023/01/05 01:03:54;;;;;;;22.83;5.13;;;10.00;92.90;;;;;;5014555;28;20037;-76
2023/01/05 01:06:20;;;;;;;27.15;5.72;;;10.00;92.70;;;;;;5031035;28;20045;-72
2023/01/05 01:08:46;;;;;;;17.15;4.47;;;10.00;92.40;;;;;;5030947;28;20119;-75
2023/01/05 01:11:12;;;;;;;22.27;7.30;;;10.00;92.50;;;;;;5024824;28;20040;-73
2023/01/05 01:13:37;;;;;;;23.10;4.78;;;10.00;92.10;;;;;;5054388;28;20041;-75
2023/01/05 01:16:12;;;;;;;23.33;7.05;;;10.00;92.30;;;;;;5038056;28;20089;-75
2023/01/05 01:18:38;;;;;;;15.63;4.75;;;10.10;92.10;;;;;;5054364;28;20045;-76
2023/01/05 01:21:04;;;;;;;26.17;5.65;;;10.10;92.00;;;;;;5054427;28;20124;-74
2023/01/05 01:23:32;;;;;;;21.02;5.43;;;10.10;91.50;;;;;;5054430;28;20079;-74
2023/01/05 01:26:03;;;;;;;24.67;4.97;;;10.10;91.60;;;;;;5052322;28;20064;-74
2023/01/05 01:28:28;;;;;;;20.80;5.55;;;10.10;91.60;;;;;;5052954;28;20198;-75
2023/01/05 01:30:55;;;;;;;19.77;3.85;;;10.10;91.60;;;;;;5036307;28;20509;-75
2023/01/05 01:33:21;;;;;;;18.50;4.22;;;10.10;91.90;;;;;;5052662;28;20075;-72
2023/01/05 01:35:47;;;;;;;22.40;5.13;;;10.10;91.70;;;;;;5052873;28;20096;-74
2023/01/05 01:38:12;;;;;;;27.08;4.88;;;10.10;91.40;;;;;;5036048;28;20516;-72
2023/01/05 01:40:44;;;;;;;20.05;5.32;;;10.10;91.60;;;;;;5036714;28;20123;-73
2023/01/05 01:43:38;;;;;;;17.98;4.95;;;10.10;91.70;;;;;;5052697;28;20045;-76
2023/01/05 01:46:04;;;;;;;17.10;4.32;;;10.10;91.90;;;;;;5048246;28;20056;-73
2023/01/05 01:48:31;;;;;;;27.77;5.68;;;10.10;92.40;;;;;;5053523;28;20040;-73
2023/01/05 01:51:01;;;;;;;26.75;6.63;;;10.00;92.50;;;;;;5054053;28;20064;-74
2023/01/05 01:53:33;;;;;;;28.23;5.78;;;10.00;92.60;;;;;;5053792;28;20400;-76
2023/01/05 01:56:01;;;;;;;17.17;3.65;;;10.00;92.40;;;;;;5053985;28;20123;-73
2023/01/05 01:58:29;;;;;;;24.58;5.63;;;10.00;92.30;;;;;;5053751;28;20560;-75
2023/01/05 02:00:59;;;;;;;25.67;5.05;;;10.00;92.00;;;;;;5052677;28;20572;-73
2023/01/05 02:03:26;;;;;;;13.75;3.67;;;10.10;92.10;;;;;;5036814;28;20238;-75
2023/01/05 02:05:53;;;;;;;23.83;4.80;;;10.00;92.50;;;;;;5053390;28;20055;-72
2023/01/05 02:08:24;;;;;;;17.67;4.25;;;10.00;92.70;;;;;;5036484;28;20485;-72
2023/01/05 02:11:08;;;;;;;19.67;5.30;;;10.00;92.90;;;;;;5052626;28;20044;-72
2023/01/05 02:14:15;;;;;;;19.27;4.10;;;9.90;92.90;;;;;;5053279;28;20037;-74
2023/01/05 02:17:08;;;;;;;27.88;4.78;;;10.00;93.00;;;;;;5009951;28;20394;-74
2023/01/05 02:20:11;;;;;;;24.83;5.95;;;10.00;92.80;;;;;;5051972;28;20052;-75
2023/01/05 02:22:45;;;;;;;18.45;3.90;;;9.90;93.10;;;;;;5036311;28;20043;-73
2023/01/05 02:25:23;;;;;;;24.88;5.78;;;9.90;93.20;;;;;;5036502;28;20037;-75
2023/01/05 02:28:16;;;;;;;21.17;5.32;;;9.90;93.10;;;;;;5053212;28;20043;-74
2023/01/05 02:30:41;;;;;;;24.20;4.25;;;9.80;93.30;;;;;;5053136;28;20137;-73
2023/01/05 02:33:26;;;;;;;19.10;4.50;;;9.80;93.50;;;;;;5053153;28;20033;-71
2023/01/05 02:36:11;;;;;;;;;;;9.90;93.10;;;;;;5052364;28;20044;-75
2023/01/05 02:38:56;;;;;;;26.25;5.43;;;9.80;93.30;;;;;;5052851;28;19917;-74
2023/01/05 02:41:33;;;;;;;35.42;6.68;;;9.80;93.40;;;;;;5053070;28;20122;-73
2023/01/05 02:44:00;;;;;;;17.17;4.30;;;9.80;93.30;;;;;;5052918;28;20119;-74
2023/01/05 02:46:26;;;;;;;21.15;5.72;;;9.80;93.70;;;;;;5019791;28;20559;-74
2023/01/05 02:48:55;;;;;;;30.08;7.20;;;9.80;93.80;;;;;;5035849;28;20186;-73
2023/01/05 02:51:33;;;;;;;25.38;5.15;;;9.70;94.00;;;;;;5051482;28;20094;-74
2023/01/05 02:54:17;;;;;;;17.73;5.03;;;9.80;94.40;;;;;;5052472;28;20094;-75
2023/01/05 02:56:47;;;;;;;13.15;4.10;;;9.70;94.40;;;;;;5052819;28;20045;-73
2023/01/05 02:59:50;;;;;;;28.65;5.80;;;9.70;94.50;;;;;;5052769;28;20048;-75
2023/01/05 03:02:30;;;;;;;36.22;7.80;;;9.60;94.60;;;;;;5042797;28;20489;-76
2023/01/05 03:05:12;;;;;;;25.00;6.15;;;9.70;94.90;;;;;;5052411;28;20049;-72
2023/01/05 03:07:41;;;;;;;29.25;4.80;;;9.70;94.70;;;;;;5051001;28;20041;-74
2023/01/05 03:15:42;;;;;;;19.58;5.05;;;9.70;94.80;;;;;;5052431;28;20076;-75
2023/01/05 03:18:16;;;;;;;16.52;4.93;;;9.70;94.80;;;;;;5052385;28;20129;-74
2023/01/05 03:20:50;;;;;;;24.10;5.97;;;9.70;94.70;;;;;;5052136;28;20106;-75
2023/01/05 03:37:58;;;;;;;24.17;5.28;;;9.80;94.50;;;;;;5051855;28;20088;-75
2023/01/05 03:40:33;;;;;;;33.55;7.15;;;9.70;94.50;;;;;;5051856;28;20053;-74
2023/01/05 03:43:00;;;;;;;30.63;6.03;;;9.70;94.40;;;;;;5050471;28;20044;-78
2023/01/05 03:45:51;;;;;;;30.23;5.63;;;9.70;94.40;;;;;;5051977;28;20374;-76
2023/01/05 03:48:19;;;;;;;26.05;4.78;;;9.70;94.40;;;;;;5051161;28;20417;-75
2023/01/05 03:50:45;;;;;;;19.35;5.55;;;9.70;94.30;;;;;;5051520;28;20057;-76
2023/01/05 03:53:11;;;;;;;25.67;6.03;;;9.80;94.20;;;;;;5051583;28;20089;-74
2023/01/05 03:55:37;;;;;;;21.35;6.13;;;9.70;94.00;;;;;;5052048;28;20036;-76
2023/01/05 03:58:03;;;;;;;19.23;4.45;;;9.80;93.90;;;;;;5050793;28;20090;-74
2023/01/05 04:00:29;;;;;;;21.92;4.93;;;9.80;93.50;;;;;;5051552;28;20408;-74
2023/01/05 04:02:54;;;;;;;24.50;6.00;;;9.90;93.30;;;;;;5034895;28;20048;-74
2023/01/05 04:05:20;;;;;;;29.08;6.18;;;9.80;93.30;;;;;;5035285;28;20101;-75
2023/01/05 04:07:46;;;;;;;26.35;5.57;;;9.80;93.30;;;;;;5034849;28;20506;-75
2023/01/05 04:10:12;;;;;;;17.80;4.53;;;9.80;93.40;;;;;;5035128;28;20037;-75
2023/01/05 04:12:37;;;;;;;19.35;4.63;;;9.80;93.50;;;;;;5035092;28;20535;-73
2023/01/05 04:15:04;;;;;;;25.27;5.20;;;9.70;93.50;;;;;;5050220;28;20041;-73
2023/01/05 04:17:30;;;;;;;18.63;4.32;;;9.60;93.30;;;;;;5051555;28;20102;-78
2023/01/05 04:19:55;;;;;;;26.15;4.72;;;9.60;93.50;;;;;;5051395;28;20493;-73
2023/01/05 04:22:21;;;;;;;21.35;3.72;;;9.60;93.60;;;;;;5018232;28;20076;-75
2023/01/05 04:24:46;;;;;;;28.65;5.40;;;9.60;93.90;;;;;;5034779;28;20095;-76
2023/01/05 04:27:12;;;;;;;29.00;7.43;;;9.70;93.80;;;;;;5051258;28;20041;-76
2023/01/05 04:29:38;;;;;;;23.42;4.47;;;9.70;93.80;;;;;;5050039;28;20060;-76
2023/01/05 04:32:04;;;;;;;27.52;6.70;;;9.80;93.90;;;;;;5018147;28;20090;-73
2023/01/05 04:34:29;;;;;;;23.77;4.95;;;9.80;93.60;;;;;;5035077;28;20048;-76
2023/01/05 04:36:55;;;;;;;34.30;6.53;;;9.70;93.80;;;;;;5051200;28;20110;-77
2023/01/05 04:39:21;;;;;;;20.48;4.50;;;9.80;93.90;;;;;;5034619;28;20036;-76
2023/01/05 04:41:47;;;;;;;27.92;5.05;;;9.80;93.80;;;;;;5051164;28;20079;-74
2023/01/05 04:44:13;;;;;;;21.45;4.60;;;9.80;93.30;;;;;;5051340;28;20090;-76
2023/01/05 04:46:39;;;;;;;24.83;5.20;;;9.80;93.50;;;;;;5035946;28;20510;-76
2023/01/05 04:49:05;;;;;;;30.73;7.57;;;9.80;93.70;;;;;;5038077;28;20091;-73
2023/01/05 04:51:31;;;;;;;30.33;6.35;;;9.80;93.50;;;;;;5054937;28;20090;-74
2023/01/05 04:53:56;;;;;;;21.83;5.47;;;9.80;93.40;;;;;;5054831;28;20044;-76
2023/01/05 04:56:22;;;;;;;18.55;3.67;;;9.90;93.30;;;;;;5038238;28;20477;-72
2023/01/05 04:58:48;;;;;;;25.75;7.57;;;9.90;93.30;;;;;;5038467;28;20049;-76
2023/01/05 05:01:14;;;;;;;17.77;4.70;;;10.00;93.20;;;;;;5054911;28;20110;-73
2023/01/05 05:03:39;;;;;;;19.55;5.63;;;9.90;93.50;;;;;;5053358;28;20045;-73
2023/01/05 05:06:05;;;;;;;24.23;5.32;;;10.00;93.40;;;;;;5038054;28;20099;-75
2023/01/05 05:08:31;;;;;;;31.65;4.75;;;9.90;93.40;;;;;;5054601;28;20405;-74
2023/01/05 05:10:58;;;;;;;27.70;6.88;;;9.90;93.60;;;;;;5021778;28;20041;-75
2023/01/05 05:13:24;;;;;;;24.25;5.85;;;9.80;93.60;;;;;;5038026;28;20044;-75
2023/01/05 05:15:50;;;;;;;25.98;5.63;;;9.80;93.60;;;;;;5054382;28;20106;-74
2023/01/05 05:18:15;;;;;;;25.33;5.20;;;9.90;93.60;;;;;;5054665;28;20040;-74
2023/01/05 05:20:46;;;;;;;17.88;4.22;;;9.80;93.80;;;;;;5053232;28;20508;-77
2023/01/05 05:23:12;;;;;;;19.60;4.93;;;9.80;93.90;;;;;;5054519;28;20047;-73
2023/01/05 05:25:38;;;;;;;24.45;5.10;;;9.90;93.60;;;;;;5054318;28;20045;-75
2023/01/05 05:28:04;;;;;;;23.17;4.78;;;9.80;93.50;;;;;;5054151;28;20083;-74
2023/01/05 05:30:30;;;;;;;17.48;5.05;;;9.90;93.70;;;;;;5054142;28;20036;-73
2023/01/05 05:32:55;;;;;;;15.90;4.03;;;9.90;93.90;;;;;;5037479;28;20052;-74
2023/01/05 05:35:21;;;;;;;27.00;5.47;;;9.90;93.80;;;;;;5053119;28;20124;-74
2023/01/05 05:37:47;;;;;;;17.58;4.38;;;9.90;93.50;;;;;;5054053;28;20041;-74
2023/01/05 05:40:12;;;;;;;23.08;4.88;;;9.90;93.60;;;;;;5037415;28;20044;-77
2023/01/05 05:42:38;;;;;;;15.93;5.20;;;10.00;93.60;;;;;;5053804;28;20041;-78
2023/01/05 05:45:04;;;;;;;18.40;4.95;;;9.90;93.50;;;;;;5053904;28;20044;-73
2023/01/05 05:47:30;;;;;;;31.58;5.15;;;9.90;93.60;;;;;;5054043;28;20064;-74
2023/01/05 05:49:56;;;;;;;20.33;3.83;;;10.00;93.60;;;;;;5037109;28;20497;-76
2023/01/05 05:52:21;;;;;;;18.17;4.78;;;10.00;93.30;;;;;;5052733;28;20040;-76
2023/01/05 05:54:47;;;;;;;18.77;4.78;;;10.00;93.10;;;;;;5037437;28;20513;-72
2023/01/05 05:57:13;;;;;;;16.35;4.97;;;10.00;93.30;;;;;;5053202;28;20037;-74
2023/01/05 05:59:38;;;;;;;16.17;4.05;;;10.00;93.20;;;;;;5037030;28;20047;-73
2023/01/05 06:02:04;;;;;;;21.52;5.28;;;9.90;93.20;;;;;;5053772;28;20063;-75
2023/01/05 06:04:30;;;;;;;23.02;5.82;;;10.00;93.20;;;;;;5053587;28;20056;-72
2023/01/05 06:06:55;;;;;;;20.17;4.85;;;10.00;93.10;;;;;;5036903;28;20076;-74
2023/01/05 06:09:21;;;;;;;20.00;4.72;;;9.90;93.40;;;;;;5028177;28;20444;-72
2023/01/05 06:11:47;;;;;;;23.25;4.40;;;9.90;93.50;;;;;;5033413;28;20042;-73
2023/01/05 06:14:12;;;;;;;18.13;4.00;;;9.80;93.50;;;;;;5033572;28;20041;-74
2023/01/05 06:16:38;;;;;;;19.65;5.07;;;9.90;93.60;;;;;;5033661;28;20519;-72
2023/01/05 06:19:03;;;;;;;26.63;5.45;;;9.90;93.50;;;;;;5016828;28;20406;-73
2023/01/05 06:21:29;;;;;;;21.23;4.63;;;9.80;93.60;;;;;;5033309;28;20091;-74
2023/01/05 06:23:55;;;;;;;17.42;6.35;;;9.80;93.70;;;;;;5000431;28;20148;-75
2023/01/05 06:26:20;;;;;;;23.58;4.97;;;9.80;93.50;;;;;;5010206;28;20044;-73
2023/01/05 06:28:46;;;;;;;20.73;4.10;;;9.80;93.50;;;;;;5052948;28;20040;-72
2023/01/05 06:31:12;;;;;;;21.75;4.47;;;9.80;93.50;;;;;;5053042;28;20068;-75
2023/01/05 06:33:37;;;;;;;30.92;5.97;;;9.90;93.50;;;;;;5036245;28;20041;-74
2023/01/05 06:36:03;;;;;;;30.35;6.70;;;9.90;93.40;;;;;;5052901;28;20037;-76
2023/01/05 06:38:29;;;;;;;20.65;4.15;;;9.80;93.30;;;;;;5052874;28;20048;-74
2023/01/05 06:40:56;;;;;;;13.02;4.15;;;9.80;93.60;;;;;;5020077;28;20048;-75
2023/01/05 06:43:23;;;;;;;18.30;3.63;;;9.80;93.50;;;;;;5051508;28;20361;-73
2023/01/05 06:45:49;;;;;;;18.20;4.43;;;9.80;93.40;;;;;;5020302;28;20507;-73
2023/01/05 06:48:15;;;;;;;22.38;5.07;;;9.90;93.30;;;;;;5036282;28;20067;-76
2023/01/05 06:50:40;;;;;;;25.50;5.05;;;9.80;93.50;;;;;;5052542;28;20505;-76
2023/01/05 06:53:09;;;;;;;21.92;4.20;;;9.70;93.50;;;;;;5052530;28;20461;-74
2023/01/05 06:55:34;;;;;;;23.70;4.80;;;9.80;93.70;;;;;;5036490;28;20397;-73
2023/01/05 06:58:00;;;;;;;24.35;5.07;;;9.80;93.40;;;;;;5051318;28;20037;-75
2023/01/05 07:00:26;;;;;;;25.45;5.07;;;9.80;93.50;;;;;;5035029;28;20531;-74
2023/01/05 07:02:52;;;;;;;27.45;5.32;;;9.70;93.60;;;;;;5052319;28;20444;-75
2023/01/05 07:05:17;;;;;;;15.63;5.40;;;9.70;93.60;;;;;;5052442;28;20041;-76
2023/01/05 07:07:43;;;;;;;19.85;3.97;;;9.70;93.50;;;;;;5052192;28;20045;-74
2023/01/05 07:10:09;;;;;;;17.60;5.97;;;9.70;93.60;;;;;;5051674;28;20113;-74
2023/01/05 07:12:35;;;;;;;18.35;4.70;;;9.60;93.60;;;;;;5035833;28;20040;-74
2023/01/05 07:15:01;;;;;;;20.65;6.35;;;9.50;93.70;;;;;;5052565;28;20477;-76
2023/01/05 07:17:26;;;;;;;20.60;3.90;;;9.50;93.80;;;;;;5021044;28;20103;-74
2023/01/05 07:19:52;;;;;;;17.27;3.70;;;9.50;93.80;;;;;;5045371;28;20604;-73
2023/01/05 07:22:18;;;;;;;16.00;4.57;;;9.50;93.90;;;;;;5035398;28;20045;-74
2023/01/05 07:24:44;;;;;;;20.52;4.07;;;9.50;94.10;;;;;;5052004;28;20052;-75
2023/01/05 07:27:09;;;;;;;21.85;4.10;;;9.50;93.90;;;;;;5052112;28;20111;-75
2023/01/05 07:29:35;;;;;;;18.40;4.25;;;9.50;93.90;;;;;;5051974;28;20127;-73
2023/01/05 07:32:01;;;;;;;20.13;5.10;;;9.60;93.90;;;;;;5051814;28;20147;-72
2023/01/05 07:34:27;;;;;;;17.90;4.25;;;9.50;94.00;;;;;;5050656;28;20037;-73
2023/01/05 07:36:52;;;;;;;23.45;5.93;;;9.50;94.00;;;;;;5035550;28;20045;-77
2023/01/05 07:39:18;;;;;;;24.15;5.05;;;9.50;94.00;;;;;;5051786;28;20040;-75
2023/01/05 07:41:44;;;;;;;14.07;3.80;;;9.60;93.90;;;;;;5035104;28;20127;-74
2023/01/05 07:44:10;;;;;;;24.33;4.78;;;9.50;94.10;;;;;;5051545;28;20124;-77
2023/01/05 07:46:35;;;;;;;18.75;4.82;;;9.50;93.90;;;;;;5051580;28;20049;-74
2023/01/05 07:49:01;;;;;;;24.23;7.07;;;9.60;94.10;;;;;;5050380;28;20051;-75
2023/01/05 07:51:27;;;;;;;14.80;4.47;;;9.50;94.10;;;;;;5015390;28;20103;-74
2023/01/05 07:53:54;;;;;;;22.08;4.13;;;9.50;94.10;;;;;;5031294;28;20037;-72
2023/01/05 07:56:21;;;;;;;20.65;4.72;;;9.50;94.20;;;;;;5031637;28;20469;-73
2023/01/05 07:58:46;;;;;;;19.17;4.50;;;9.50;94.00;;;;;;5031781;28;20371;-74
2023/01/05 08:01:14;;;;;;;20.98;5.00;;;9.50;94.10;;;;;;5031637;28;20072;-74
2023/01/05 08:03:40;;;;;;;19.27;4.45;;;9.50;94.00;;;;;;5031560;28;20041;-72
2023/01/05 08:06:09;;;;;;;20.35;4.75;;;9.60;94.10;;;;;;5034779;28;20051;-72
2023/01/05 08:08:34;;;;;;;18.80;3.85;;;9.50;94.00;;;;;;5051430;28;20045;-73
2023/01/05 08:11:03;;;;;;;18.40;4.32;;;9.60;94.10;;;;;;5051729;28;20443;-75
2023/01/05 08:16:13;;;;;;;27.15;5.78;;;9.50;94.10;;;;;;5051373;28;20041;-74
2023/01/05 08:18:39;;;;;;;20.98;5.15;;;9.50;94.10;;;;;;5034799;28;20106;-73
2023/01/05 08:21:07;;;;;;;27.45;4.47;;;9.60;94.20;;;;;;5054554;28;20045;-74
2023/01/05 08:23:33;;;;;;;32.33;4.80;;;9.60;94.20;;;;;;5055329;28;20041;-75
2023/01/05 08:26:11;;;;;;;25.55;4.70;;;9.50;94.20;;;;;;5055387;28;20083;-72
2023/01/05 08:28:38;;;;;;;28.42;6.35;;;9.60;94.40;;;;;;5055278;28;20091;-74
2023/01/05 08:31:15;;;;;;;19.58;4.82;;;9.60;94.30;;;;;;5055569;28;20389;-78
2023/01/05 08:33:42;;;;;;;19.30;5.22;;;9.50;94.30;;;;;;5055202;28;20067;-76
2023/01/05 08:36:13;;;;;;;25.63;5.65;;;9.60;94.40;;;;;;5055464;28;20366;-75
2023/01/05 08:38:47;;;;;;;17.70;5.25;;;9.60;94.30;;;;;;5055415;28;20091;-76
2023/01/05 08:41:23;;;;;;;28.75;5.65;;;9.60;94.30;;;;;;5055353;28;20204;-75
2023/01/05 08:43:54;;;;;;;26.35;6.47;;;9.60;94.30;;;;;;5055232;28;20037;-75
2023/01/05 08:46:22;;;;;;;25.88;5.03;;;9.50;94.40;;;;;;5054775;28;20070;-73
2023/01/05 08:48:54;;;;;;;16.42;4.45;;;9.60;94.30;;;;;;5053503;28;20515;-74
2023/01/05 08:51:20;;;;;;;18.60;3.85;;;9.60;94.30;;;;;;5038267;28;20048;-74
2023/01/05 08:53:46;;;;;;;23.20;4.70;;;9.50;94.40;;;;;;5038154;28;20045;-74
2023/01/05 08:56:12;;;;;;;25.92;4.82;;;9.60;94.40;;;;;;5055144;28;20040;-73
2023/01/05 08:58:39;;;;;;;28.58;5.45;;;9.60;94.20;;;;;;5054502;28;20133;-73
2023/01/05 09:01:14;;;;;;;24.48;5.90;;;9.60;94.20;;;;;;5021686;28;20041;-74
2023/01/05 09:03:40;;;;;;;17.63;4.72;;;9.60;94.20;;;;;;5033573;28;20033;-74
2023/01/05 09:06:10;;;;;;;19.60;4.20;;;9.60;94.20;;;;;;5034932;28;20064;-76
2023/01/05 09:08:37;;;;;;;21.88;5.68;;;9.70;94.10;;;;;;5034735;28;20064;-74
2023/01/05 09:11:12;;;;;;;24.90;4.90;;;9.70;93.90;;;;;;5034551;28;20121;-73
2023/01/05 09:13:40;;;;;;;20.27;4.10;;;9.70;94.10;;;;;;5051344;28;20043;-75
2023/01/05 09:16:11;;;;;;;21.73;4.68;;;9.60;94.00;;;;;;5034716;28;20521;-76
2023/01/05 09:18:38;;;;;;;28.83;5.70;;;9.60;94.10;;;;;;5034471;28;20099;-72
2023/01/05 09:21:05;;;;;;;28.20;5.35;;;9.60;94.10;;;;;;5050682;28;20084;-73
2023/01/05 09:23:31;;;;;;;18.83;4.22;;;9.70;94.40;;;;;;5054238;28;20094;-73
2023/01/05 09:25:57;;;;;;;23.67;5.35;;;9.70;94.30;;;;;;5031328;28;20045;-75
2023/01/05 09:28:23;;;;;;;25.92;5.20;;;9.70;94.30;;;;;;5044791;28;20037;-74
2023/01/05 09:30:49;;;;;;;25.38;4.80;;;9.60;94.20;;;;;;5036755;28;20513;-73
2023/01/05 09:33:16;;;;;;;29.92;6.07;;;9.70;94.40;;;;;;5033416;28;20077;-75
2023/01/05 09:35:41;;;;;;;25.23;4.85;;;9.70;94.50;;;;;;5034434;28;20394;-74
2023/01/05 09:38:07;;;;;;;18.02;4.00;;;9.70;94.30;;;;;;5043535;28;20040;-75
2023/01/05 09:40:39;;;;;;;19.73;5.60;;;9.70;94.50;;;;;;5054281;28;20041;-76
2023/01/05 09:43:10;;;;;;;21.77;4.55;;;9.70;94.40;;;;;;5037343;28;20072;-74
2023/01/05 09:45:36;;;;;;;19.52;5.03;;;9.70;94.20;;;;;;5051848;28;20552;-74
2023/01/05 09:48:02;;;;;;;24.52;4.88;;;9.70;94.30;;;;;;5033881;28;20183;-74
2023/01/05 09:50:32;;;;;;;19.35;4.25;;;9.80;94.50;;;;;;5033649;28;20125;-74
2023/01/05 09:52:59;;;;;;;21.52;4.38;;;9.80;94.30;;;;;;5039558;28;20049;-73
2023/01/05 09:55:29;;;;;;;20.00;4.30;;;9.80;94.40;;;;;;5037113;28;20080;-74
2023/01/05 09:58:07;;;;;;;14.63;4.03;;;9.80;94.40;;;;;;5053701;28;20091;-75
2023/01/05 10:00:34;;;;;;;15.07;4.95;;;9.80;94.00;;;;;;5053876;28;20037;-73
2023/01/05 10:03:05;;;;;;;21.02;4.07;;;9.70;94.10;;;;;;5053783;28;20052;-74
2023/01/05 10:05:32;;;;;;;18.25;4.40;;;9.80;94.20;;;;;;5053514;28;20041;-74
2023/01/05 10:08:05;;;;;;;16.15;3.63;;;9.90;94.10;;;;;;5053435;28;20520;-75
2023/01/05 10:10:45;;;;;;;14.70;4.70;;;9.90;93.90;;;;;;5052187;28;20485;-75
2023/01/05 10:13:30;;;;;;;17.10;3.90;;;9.90;93.80;;;;;;5036870;28;20102;-72
2023/01/05 10:15:56;;;;;;;17.67;4.50;;;9.90;93.70;;;;;;5053640;28;20516;-74
2023/01/05 10:18:25;;;;;;;15.93;5.22;;;9.90;93.80;;;;;;5053309;28;20142;-72
2023/01/05 10:21:14;;;;;;;11.10;2.70;;;10.00;93.50;;;;;;5053522;28;20393;-74
2023/01/05 10:23:45;;;;;;;8.90;2.40;;;10.00;92.50;;;;;;5053104;28;20048;-73
2023/01/05 10:26:34;;;;;;;13.25;3.67;;;10.00;92.40;;;;;;5053032;28;20045;-73
2023/01/05 10:29:12;;;;;;;10.52;3.17;;;10.10;92.10;;;;;;5053002;28;20041;-75
2023/01/05 10:32:00;;;;;;;13.02;3.40;;;10.10;91.90;;;;;;5053288;28;20461;-73
2023/01/05 10:34:28;;;;;;;17.88;4.57;;;10.10;91.80;;;;;;5053261;28;20041;-74
2023/01/05 10:37:04;;;;;;;18.75;4.13;;;10.10;92.10;;;;;;5036307;28;20037;-73
2023/01/05 10:39:42;;;;;;;17.20;3.97;;;10.10;92.20;;;;;;5052880;28;20045;-73
2023/01/05 10:42:24;;;;;;;21.05;3.58;;;10.20;92.30;;;;;;5053041;28;20040;-73
2023/01/05 10:44:58;;;;;;;23.50;4.15;;;10.20;92.30;;;;;;5035348;28;20135;-72
2023/01/05 10:47:26;;;;;;;21.10;3.75;;;10.10;92.50;;;;;;5052667;28;20053;-75
2023/01/05 10:49:52;;;;;;;19.38;3.97;;;10.10;92.60;;;;;;5052856;28;20052;-74
2023/01/05 10:52:20;;;;;;;22.73;4.47;;;10.10;92.70;;;;;;5035978;28;20040;-75
2023/01/05 10:54:59;;;;;;;24.55;6.47;;;10.10;92.90;;;;;;5052570;28;20049;-73
2023/01/05 10:57:28;;;;;;;18.17;4.15;;;10.10;92.90;;;;;;5052744;28;20049;-74
2023/01/05 10:59:55;;;;;;;14.40;3.80;;;10.10;93.10;;;;;;5052729;28;20040;-76
2023/01/05 11:02:20;;;;;;;18.05;4.78;;;10.10;93.30;;;;;;5051408;28;20403;-75
2023/01/05 11:04:47;;;;;;;19.60;5.07;;;10.20;93.20;;;;;;5052384;28;20041;-72
2023/01/05 11:07:13;;;;;;;22.13;5.15;;;10.30;93.40;;;;;;5068924;28;20040;-71
2023/01/05 11:09:40;;;;;;;23.27;4.18;;;10.30;93.40;;;;;;5035735;28;20114;-72
2023/01/05 11:12:13;;;;;;;26.67;5.10;;;10.30;93.30;;;;;;5052140;28;20041;-75
2023/01/05 11:14:46;;;;;;;17.15;4.07;;;10.40;93.10;;;;;;5052291;28;20033;-74
2023/01/05 11:17:18;;;;;;;21.98;3.92;;;10.40;92.80;;;;;;5067758;28;20048;-74
2023/01/05 11:19:48;;;;;;;22.35;4.97;;;10.30;92.80;;;;;;5052203;28;20039;-72
2023/01/05 11:22:38;;;;;;;19.92;4.90;;;10.40;93.00;;;;;;5035474;28;20045;-73
2023/01/05 11:25:30;;;;;;;19.85;5.07;;;10.30;93.00;;;;;;5052417;28;20041;-76
2023/01/05 11:28:05;;;;;;;26.05;7.10;;;10.30;92.90;;;;;;5051429;28;20110;-72
2023/01/05 11:30:32;;;;;;;24.67;6.65;;;10.30;92.80;;;;;;5050392;28;20045;-73
2023/01/05 11:33:00;;;;;;;24.05;4.22;;;10.30;92.80;;;;;;5049237;28;20072;-73
2023/01/05 11:35:38;;;;;;;25.75;6.05;;;10.30;92.90;;;;;;5050694;28;20080;-73
2023/01/05 11:38:05;;;;;;;19.85;4.07;;;10.30;92.90;;;;;;5034600;28;20095;-73
2023/01/05 11:40:34;;;;;;;25.10;6.30;;;10.30;92.70;;;;;;5052128;28;20049;-73
2023/01/05 11:43:08;;;;;;;20.75;4.70;;;10.30;92.70;;;;;;5051765;28;20045;-73
2023/01/05 11:45:40;;;;;;;20.48;4.78;;;10.30;92.60;;;;;;5052072;28;20084;-74
2023/01/05 11:48:07;;;;;;;24.63;5.68;;;10.30;92.80;;;;;;5035131;28;20071;-73
2023/01/05 11:50:46;;;;;;;29.40;6.63;;;10.30;92.70;;;;;;5050441;28;20099;-73
2023/01/05 11:53:34;;;;;;;20.83;4.57;;;10.30;92.30;;;;;;5051926;28;20040;-75
2023/01/05 11:56:04;;;;;;;19.30;4.28;;;10.40;92.20;;;;;;5034838;28;20087;-72
2023/01/05 11:58:42;;;;;;;24.77;5.53;;;10.40;92.50;;;;;;5036408;28;20048;-73
2023/01/05 12:01:29;;;;;;;21.88;5.55;;;10.40;92.40;;;;;;5035104;28;20098;-74
2023/01/05 12:04:13;;;;;;;16.80;4.57;;;10.40;92.60;;;;;;5051783;28;20041;-71
2023/01/05 12:07:01;;;;;;;17.83;4.00;;;10.40;92.40;;;;;;5034205;28;20397;-71
2023/01/05 12:09:29;;;;;;;19.88;5.63;;;10.40;92.60;;;;;;5051440;28;20417;-74
2023/01/05 12:11:57;;;;;;;28.55;5.50;;;10.40;92.40;;;;;;5051467;28;20042;-74
2023/01/05 12:14:54;;;;;;;20.88;5.22;;;10.40;92.40;;;;;;5051721;28;20037;-74
2023/01/05 12:17:29;;;;;;;19.63;5.20;;;10.40;92.50;;;;;;5034895;28;20068;-72
2023/01/05 12:20:32;;;;;;;27.15;5.85;;;10.40;92.70;;;;;;5051931;28;20446;-73
2023/01/05 12:23:12;;;;;;;23.38;4.93;;;10.40;92.50;;;;;;5031598;28;20359;-72
2023/01/05 12:25:53;;;;;;;19.38;4.43;;;10.40;92.90;;;;;;5051349;28;20036;-72
2023/01/05 12:28:25;;;;;;;22.67;4.10;;;10.30;92.80;;;;;;5051276;28;20053;-73
2023/01/05 12:31:06;;;;;;;16.40;4.57;;;10.40;92.70;;;;;;5051373;28;20037;-74
2023/01/05 12:34:09;;;;;;;18.63;3.97;;;10.30;92.90;;;;;;5051338;28;20045;-76
2023/01/05 12:37:15;;;;;;;21.70;4.63;;;10.40;92.80;;;;;;5051585;28;20092;-73
2023/01/05 12:40:02;;;;;;;21.98;5.22;;;10.30;92.70;;;;;;5066724;28;20562;-73
2023/01/05 12:42:30;;;;;;;18.02;4.28;;;10.30;92.70;;;;;;5049635;28;20045;-74
2023/01/05 12:45:05;;;;;;;28.20;5.93;;;10.30;92.90;;;;;;5051492;28;20519;-73
2023/01/05 12:47:47;;;;;;;22.33;3.85;;;10.30;92.80;;;;;;5051104;28;20045;-74
2023/01/05 12:50:32;;;;;;;23.55;7.75;;;10.30;93.20;;;;;;5050970;28;20118;-74
2023/01/05 12:53:19;;;;;;;23.92;5.10;;;10.30;93.20;;;;;;5051073;28;20555;-71
2023/01/05 12:55:55;;;;;;;27.13;5.35;;;10.30;93.30;;;;;;5051133;28;20048;-73
2023/01/05 12:58:33;;;;;;;20.42;4.88;;;10.30;93.30;;;;;;5049716;28;20120;-72
2023/01/05 13:01:01;;;;;;;36.03;5.78;;;10.20;93.30;;;;;;5034777;28;20040;-75
2023/01/05 13:03:38;;;;;;;29.20;6.47;;;10.30;93.30;;;;;;5034529;28;20041;-77
2023/01/05 13:06:13;;;;;;;22.42;5.30;;;10.30;93.30;;;;;;5034487;28;20495;-74
2023/01/05 13:08:49;;;;;;;22.45;4.95;;;10.30;93.30;;;;;;5054417;28;20083;-75
2023/01/05 13:11:28;;;;;;;41.47;6.43;;;10.40;93.10;;;;;;5054867;28;20070;-72
2023/01/05 13:14:09;;;;;;;18.10;5.40;;;10.30;93.20;;;;;;5053354;28;20087;-74
2023/01/05 13:16:41;;;;;;;25.58;5.38;;;10.30;93.10;;;;;;5054540;28;20036;-74
2023/01/05 13:19:37;;;;;;;25.63;4.10;;;10.30;93.10;;;;;;5054371;28;20048;-73
2023/01/05 13:22:13;;;;;;;26.45;5.28;;;10.30;93.20;;;;;;5037634;28;20041;-74
2023/01/05 13:24:51;;;;;;;22.13;5.80;;;10.30;93.20;;;;;;5054617;28;20385;-75
2023/01/05 13:27:17;;;;;;;17.20;5.50;;;10.30;93.30;;;;;;5054297;28;20083;-75
2023/01/05 13:29:47;;;;;;;25.83;5.72;;;10.30;93.30;;;;;;5053309;28;20076;-73
2023/01/05 13:32:51;;;;;;;20.33;4.93;;;10.30;93.30;;;;;;5054220;28;20048;-72
2023/01/05 13:35:27;;;;;;;24.13;4.65;;;10.30;93.40;;;;;;5054471;28;20056;-73